Time;durP1;ratioP1;P1;durP2;ratioP2;P2;SDS_P1;SDS_P2;PMS_P1;PMS_P2;Temp;Humidity;BMP_temperature;BMP_pressure;BME280_temperature;BME280_humidity;BME280_pressure;Samples;Min_cycle;Max_cycle;Signal;HPM_P1;HPM_P2
2023/04/30 00:00:51;;;;;;;3.13;2.05;;;13.30;94.70;;;;;;4980846;28;20030;-78
2023/04/30 00:03:17;;;;;;;4.97;2.70;;;13.40;94.60;;;;;;4997345;28;20026;-78
2023/04/30 00:05:42;;;;;;;3.72;2.38;;;13.40;94.50;;;;;;5014540;28;20467;-78
2023/04/30 00:08:08;;;;;;;3.95;2.80;;;13.50;94.50;;;;;;4997378;28;20478;-78
2023/04/30 00:10:34;;;;;;;4.80;2.42;;;13.60;94.40;;;;;;4997248;28;20474;-78
2023/04/30 00:12:59;;;;;;;3.20;2.38;;;13.60;94.30;;;;;;4997130;28;20478;-78
2023/04/30 00:15:25;;;;;;;4.03;2.70;;;13.70;94.40;;;;;;4997176;28;20084;-78
2023/04/30 00:17:52;;;;;;;4.63;2.70;;;13.70;94.30;;;;;;4997157;28;20431;-78
2023/04/30 00:20:17;;;;;;;4.38;3.05;;;13.70;94.10;;;;;;4980381;28;20394;-78
2023/04/30 00:22:43;;;;;;;4.47;2.88;;;13.70;94.10;;;;;;4996638;28;20088;-78
2023/04/30 00:25:09;;;;;;;5.25;2.70;;;13.70;93.90;;;;;;4997110;28;20030;-78
2023/04/30 00:27:34;;;;;;;3.65;2.40;;;13.70;94.00;;;;;;4996361;28;20046;-79
2023/04/30 00:30:00;;;;;;;3.85;2.58;;;13.70;94.10;;;;;;5014163;28;20387;-79
2023/04/30 00:32:26;;;;;;;8.30;3.60;;;13.70;93.90;;;;;;4996753;28;20034;-78
2023/04/30 00:34:52;;;;;;;4.15;2.10;;;13.70;93.90;;;;;;5014164;28;20034;-78
2023/04/30 00:37:17;;;;;;;4.38;2.42;;;13.70;93.90;;;;;;5013973;28;20037;-78
2023/04/30 00:39:43;;;;;;;4.35;2.22;;;13.70;94.00;;;;;;4996708;28;20038;-78
2023/04/30 00:42:08;;;;;;;4.32;2.45;;;13.70;94.00;;;;;;4980345;28;20027;-78
2023/04/30 00:44:34;;;;;;;5.57;3.30;;;13.70;94.20;;;;;;5013947;28;20084;-78
2023/04/30 00:47:00;;;;;;;5.72;2.78;;;13.50;93.40;;;;;;5014177;28;20066;-78
2023/04/30 00:49:26;;;;;;;2.53;2.30;;;13.40;93.80;;;;;;4964263;28;20026;-78
2023/04/30 00:51:53;;;;;;;4.75;2.92;;;13.40;94.00;;;;;;5013967;28;20040;-79
2023/04/30 00:54:20;;;;;;;4.47;3.00;;;13.40;94.00;;;;;;4996601;28;20038;-78
2023/04/30 00:56:46;;;;;;;3.95;2.10;;;13.50;94.00;;;;;;5013597;28;20036;-78
2023/04/30 00:59:13;;;;;;;3.67;2.25;;;13.50;94.20;;;;;;4996400;28;20042;-79
2023/04/30 01:01:38;;;;;;;2.30;1.50;;;13.50;93.90;;;;;;4996297;28;20029;-79
2023/04/30 01:04:04;;;;;;;3.00;2.00;;;13.50;93.80;;;;;;5013925;28;20117;-79
2023/04/30 01:06:30;;;;;;;3.45;1.98;;;13.50;94.00;;;;;;4996311;28;20045;-79
2023/04/30 01:08:57;;;;;;;4.82;2.25;;;13.50;93.70;;;;;;4996163;28;20032;-79
2023/04/30 01:11:51;;;;;;;2.25;1.52;;;13.50;93.90;;;;;;5013861;28;20029;-78
2023/04/30 01:14:24;;;;;;;3.45;2.00;;;13.50;94.00;;;;;;4999070;28;20030;-78
2023/04/30 01:17:22;;;;;;;3.83;2.10;;;13.50;94.10;;;;;;4996184;28;20088;-78
2023/04/30 01:19:48;;;;;;;3.33;1.90;;;13.60;93.90;;;;;;5013378;28;20033;-78
2023/04/30 01:22:23;;;;;;;4.80;1.60;;;13.60;94.00;;;;;;4996341;28;20112;-78
2023/04/30 01:25:02;;;;;;;3.90;1.60;;;13.60;94.00;;;;;;5014074;28;20028;-78
2023/04/30 01:28:08;;;;;;;4.72;2.20;;;13.60;94.10;;;;;;5013254;28;20120;-79
2023/04/30 01:30:34;;;;;;;3.47;1.58;;;13.60;94.00;;;;;;4977368;28;20042;-79
2023/04/30 01:33:01;;;;;;;3.75;1.90;;;13.60;93.90;;;;;;4998446;28;20030;-79
2023/04/30 01:35:47;;;;;;;3.15;1.70;;;13.60;93.90;;;;;;5000117;28;20061;-79
2023/04/30 01:38:41;;;;;;;2.13;1.70;;;13.70;93.90;;;;;;4967495;28;20045;-79
2023/04/30 01:41:21;;;;;;;3.47;2.13;;;13.70;94.00;;;;;;5017437;28;20382;-79
2023/04/30 01:44:16;;;;;;;5.18;1.73;;;13.70;93.70;;;;;;5017365;28;20062;-79
2023/04/30 01:46:56;;;;;;;3.83;1.60;;;13.60;93.90;;;;;;4996855;28;20189;-79
2023/04/30 01:49:31;;;;;;;2.78;1.92;;;13.70;94.00;;;;;;4999802;28;20116;-79
2023/04/30 01:52:14;;;;;;;3.58;2.00;;;13.70;93.90;;;;;;4999617;28;20081;-79
2023/04/30 01:55:04;;;;;;;2.60;1.70;;;13.70;93.80;;;;;;4999956;28;20510;-79
2023/04/30 01:57:38;;;;;;;1.90;1.50;;;13.70;93.80;;;;;;5016851;28;20108;-79
2023/04/30 02:00:08;;;;;;;3.25;1.70;;;13.70;94.00;;;;;;5017259;28;20021;-79
2023/04/30 02:02:34;;;;;;;2.22;1.40;;;13.70;94.20;;;;;;4999602;28;20037;-78
2023/04/30 02:05:00;;;;;;;2.17;1.55;;;13.70;94.10;;;;;;4999569;28;20030;-78
2023/04/30 02:07:40;;;;;;;3.75;2.55;;;13.70;94.50;;;;;;5017162;28;20033;-79
2023/04/30 02:10:07;;;;;;;2.67;2.22;;;13.70;93.90;;;;;;5017034;28;20030;-79
2023/04/30 02:12:33;;;;;;;4.30;2.28;;;13.60;93.60;;;;;;4999385;28;20046;-79
2023/04/30 02:14:58;;;;;;;4.88;2.80;;;13.60;94.00;;;;;;4999377;28;20057;-79
2023/04/30 02:17:24;;;;;;;3.20;1.77;;;13.50;93.80;;;;;;5016719;28;20080;-79
2023/04/30 02:19:50;;;;;;;4.07;2.80;;;13.40;93.90;;;;;;4983045;28;20034;-79
2023/04/30 02:22:15;;;;;;;4.05;2.20;;;13.40;94.10;;;;;;4999087;28;20054;-79
2023/04/30 02:24:41;;;;;;;2.08;1.27;;;13.40;94.20;;;;;;5016430;28;20037;-79
2023/04/30 02:27:07;;;;;;;3.25;2.22;;;13.40;94.20;;;;;;5016390;28;20448;-79
2023/04/30 02:29:33;;;;;;;5.90;3.10;;;13.40;94.40;;;;;;4999392;28;20034;-79
2023/04/30 02:31:58;;;;;;;4.85;2.25;;;13.30;93.60;;;;;;4998990;28;20363;-79
2023/04/30 02:34:24;;;;;;;4.10;1.98;;;13.10;94.20;;;;;;4999048;28;20030;-79
2023/04/30 02:36:50;;;;;;;2.65;1.98;;;13.10;94.50;;;;;;4999040;28;20431;-78
2023/04/30 02:39:16;;;;;;;4.32;2.42;;;13.20;94.60;;;;;;4999120;28;20117;-79
2023/04/30 02:41:42;;;;;;;3.95;3.00;;;13.10;94.30;;;;;;4998932;28;20034;-79
2023/04/30 02:44:07;;;;;;;5.10;2.45;;;12.90;93.90;;;;;;5016329;28;20034;-79
2023/04/30 02:46:33;;;;;;;5.00;2.15;;;12.70;94.40;;;;;;4998965;28;20515;-79
2023/04/30 02:48:58;;;;;;;4.63;2.90;;;12.70;94.70;;;;;;5016342;28;20034;-79
2023/04/30 02:51:24;;;;;;;4.45;2.40;;;12.70;94.70;;;;;;4998712;28;20033;-79
2023/04/30 02:53:50;;;;;;;4.28;2.10;;;12.70;94.70;;;;;;4966171;28;20034;-79
2023/04/30 02:56:16;;;;;;;3.53;1.90;;;12.80;94.80;;;;;;4982461;28;20030;-78
2023/04/30 02:58:41;;;;;;;5.22;1.95;;;12.80;94.80;;;;;;5015611;28;20363;-79
2023/04/30 03:01:07;;;;;;;5.32;2.08;;;12.90;94.80;;;;;;4998715;28;20104;-79
2023/04/30 03:03:33;;;;;;;4.38;2.38;;;12.90;94.90;;;;;;4998383;28;20041;-79
2023/04/30 03:05:58;;;;;;;4.05;2.00;;;13.00;94.90;;;;;;5015564;28;20090;-78
2023/04/30 03:08:25;;;;;;;5.05;2.40;;;13.00;94.70;;;;;;4998222;28;20076;-78
2023/04/30 03:10:51;;;;;;;3.40;1.80;;;13.00;94.90;;;;;;4998155;28;20030;-79
2023/04/30 03:13:17;;;;;;;4.60;1.58;;;12.90;94.70;;;;;;4998283;28;20529;-78
2023/04/30 03:15:43;;;;;;;5.55;2.80;;;12.90;94.90;;;;;;5015316;28;20030;-79
2023/04/30 03:18:09;;;;;;;4.07;1.90;;;12.90;94.80;;;;;;5015794;28;20038;-79
2023/04/30 03:20:35;;;;;;;4.03;2.25;;;12.90;94.80;;;;;;4997839;28;20134;-78
2023/04/30 03:23:01;;;;;;;4.30;2.55;;;12.90;95.10;;;;;;5015740;28;20586;-78
2023/04/30 03:25:27;;;;;;;6.38;3.20;;;12.90;95.10;;;;;;5015665;28;20076;-79
2023/04/30 03:27:52;;;;;;;4.50;2.03;;;12.90;94.90;;;;;;5015025;28;20033;-79
2023/04/30 03:30:18;;;;;;;3.70;2.45;;;12.80;95.10;;;;;;5015518;28;20466;-78
2023/04/30 03:32:44;;;;;;;9.77;3.35;;;12.80;95.10;;;;;;4998126;28;20037;-79
2023/04/30 03:35:10;;;;;;;9.70;3.20;;;12.80;95.10;;;;;;4981829;28;20030;-78
2023/04/30 03:37:35;;;;;;;4.40;2.42;;;12.70;94.80;;;;;;4997908;28;20406;-79
2023/04/30 03:40:02;;;;;;;3.13;2.20;;;12.60;94.80;;;;;;4965642;28;20037;-79
2023/04/30 03:42:27;;;;;;;10.10;3.38;;;12.60;95.20;;;;;;4997677;28;20149;-79
2023/04/30 03:44:53;;;;;;;5.63;2.75;;;12.60;95.20;;;;;;5015292;28;20061;-79
2023/04/30 03:47:19;;;;;;;5.63;2.78;;;12.60;95.10;;;;;;5015220;28;20034;-79
2023/04/30 03:49:44;;;;;;;5.10;2.53;;;12.50;95.30;;;;;;5015163;28;20117;-78
2023/04/30 03:52:10;;;;;;;6.40;2.78;;;12.50;95.20;;;;;;4981262;28;20029;-78
2023/04/30 03:54:36;;;;;;;6.97;2.90;;;12.50;95.30;;;;;;5014306;28;20526;-79
2023/04/30 03:57:06;;;;;;;5.97;3.28;;;12.50;95.40;;;;;;4997085;28;20475;-78
2023/04/30 03:59:32;;;;;;;6.03;2.53;;;12.40;95.20;;;;;;4997938;28;20030;-78
2023/04/30 04:02:00;;;;;;;6.18;3.00;;;12.40;95.40;;;;;;4997162;28;20053;-79
2023/04/30 04:04:26;;;;;;;5.75;2.55;;;12.40;95.60;;;;;;4997239;28;20101;-78
2023/04/30 04:06:51;;;;;;;4.60;2.83;;;12.40;95.90;;;;;;4997236;28;20462;-78
2023/04/30 04:09:17;;;;;;;6.20;2.88;;;12.40;95.80;;;;;;4997117;28;20442;-78
2023/04/30 04:11:42;;;;;;;7.00;3.30;;;12.40;95.90;;;;;;4981109;28;20057;-78
2023/04/30 04:14:08;;;;;;;7.68;3.30;;;12.30;96.00;;;;;;4997156;28;20467;-78
2023/04/30 04:16:34;;;;;;;5.78;3.45;;;12.40;96.20;;;;;;4997026;28;20042;-78
2023/04/30 04:18:59;;;;;;;6.50;3.60;;;12.30;95.90;;;;;;4997433;28;20034;-78
2023/04/30 04:21:25;;;;;;;7.03;3.20;;;12.30;96.20;;;;;;4996595;28;20046;-78
2023/04/30 04:23:51;;;;;;;7.22;3.70;;;12.30;96.10;;;;;;4997100;28;20021;-79
2023/04/30 04:26:18;;;;;;;7.18;3.92;;;12.30;96.00;;;;;;4980982;28;20159;-78
2023/04/30 04:28:44;;;;;;;9.38;3.83;;;12.20;96.00;;;;;;5014438;28;20462;-79
2023/04/30 04:31:10;;;;;;;5.80;2.72;;;12.20;96.20;;;;;;5014495;28;20060;-78
2023/04/30 04:33:36;;;;;;;5.43;3.30;;;12.20;96.20;;;;;;5013881;28;20053;-79
2023/04/30 04:36:01;;;;;;;6.93;3.50;;;12.20;96.40;;;;;;4996562;28;20038;-79
2023/04/30 04:38:27;;;;;;;9.02;3.53;;;12.20;96.40;;;;;;4996969;28;20040;-79
2023/04/30 04:40:54;;;;;;;4.47;2.45;;;12.20;96.20;;;;;;4980677;28;20026;-78
2023/04/30 04:43:19;;;;;;;7.70;3.75;;;12.20;96.30;;;;;;5014283;28;20034;-79
2023/04/30 04:45:46;;;;;;;5.53;2.38;;;12.20;96.50;;;;;;5014031;28;20022;-79
2023/04/30 04:48:12;;;;;;;4.00;2.58;;;12.20;96.70;;;;;;4996922;28;20022;-79
2023/04/30 04:50:38;;;;;;;3.47;3.03;;;12.30;96.70;;;;;;4996779;28;20113;-79
2023/04/30 04:53:03;;;;;;;7.25;3.55;;;12.30;96.80;;;;;;4996133;28;20033;-79
2023/04/30 04:55:30;;;;;;;5.93;3.40;;;12.30;96.50;;;;;;4996167;28;20038;-79
2023/04/30 04:57:56;;;;;;;9.65;4.60;;;12.30;96.40;;;;;;5013540;28;20038;-79
2023/04/30 05:00:22;;;;;;;7.35;4.07;;;12.40;96.50;;;;;;4996372;28;20509;-79
2023/04/30 05:02:48;;;;;;;9.57;4.10;;;12.30;96.20;;;;;;4996603;28;20502;-79
2023/04/30 05:05:14;;;;;;;7.45;4.32;;;12.30;96.30;;;;;;4996395;28;20034;-79
2023/04/30 05:07:40;;;;;;;6.43;4.25;;;12.30;96.20;;;;;;4995448;28;20127;-79
2023/04/30 05:10:07;;;;;;;8.50;5.07;;;12.20;96.10;;;;;;5013699;28;20026;-79
2023/04/30 05:12:32;;;;;;;7.50;4.18;;;12.20;96.20;;;;;;5013763;28;20046;-78
2023/04/30 05:14:58;;;;;;;9.30;4.95;;;12.00;96.50;;;;;;4996665;28;20109;-79
2023/04/30 05:17:24;;;;;;;7.90;4.82;;;12.00;96.90;;;;;;4996269;28;20041;-78
2023/04/30 05:19:50;;;;;;;7.60;4.65;;;11.90;97.00;;;;;;5013370;28;20034;-79
2023/04/30 05:22:16;;;;;;;10.52;5.18;;;11.90;97.20;;;;;;4995798;28;20054;-79
2023/04/30 05:24:42;;;;;;;7.90;4.72;;;11.90;97.40;;;;;;5013828;28;20064;-78
2023/04/30 05:27:08;;;;;;;7.22;5.22;;;11.90;97.40;;;;;;5013467;28;20113;-78
2023/04/30 05:29:34;;;;;;;10.57;5.75;;;11.80;97.40;;;;;;5013185;28;20383;-79
2023/04/30 05:32:00;;;;;;;11.77;6.43;;;11.70;97.60;;;;;;5013720;28;20034;-79
2023/04/30 05:34:26;;;;;;;10.75;5.82;;;11.60;98.00;;;;;;4995945;28;20030;-79
2023/04/30 05:36:52;;;;;;;9.32;5.20;;;11.50;98.10;;;;;;5013472;28;20060;-78
2023/04/30 05:39:18;;;;;;;7.25;4.47;;;11.50;98.40;;;;;;4996029;28;20085;-79
2023/04/30 05:41:43;;;;;;;6.72;4.95;;;11.60;98.40;;;;;;4996133;28;20110;-78
2023/04/30 05:44:09;;;;;;;8.23;5.43;;;11.70;98.60;;;;;;4995759;28;20034;-79
2023/04/30 05:46:35;;;;;;;8.05;4.63;;;11.80;98.60;;;;;;4995889;28;20181;-79
2023/04/30 05:49:01;;;;;;;9.55;5.38;;;11.80;98.40;;;;;;5013546;28;20034;-78
2023/04/30 05:51:27;;;;;;;10.23;5.20;;;11.90;98.40;;;;;;4979914;28;20041;-79
2023/04/30 05:53:53;;;;;;;7.57;4.40;;;11.90;98.40;;;;;;5013417;28;20033;-79
2023/04/30 05:56:20;;;;;;;6.55;3.80;;;11.90;98.40;;;;;;4979541;28;20120;-78
2023/04/30 05:58:45;;;;;;;9.93;5.22;;;11.90;98.60;;;;;;4979371;28;20045;-79
2023/04/30 06:01:11;;;;;;;7.47;4.30;;;12.10;98.70;;;;;;4996045;28;20026;-79
2023/04/30 06:03:37;;;;;;;10.38;4.57;;;12.10;98.40;;;;;;5013445;28;20026;-79
2023/04/30 06:06:03;;;;;;;12.73;5.85;;;12.10;98.30;;;;;;5012902;28;20034;-79
2023/04/30 06:08:29;;;;;;;13.20;5.03;;;12.10;98.00;;;;;;5013338;28;20037;-78
2023/04/30 06:10:55;;;;;;;8.80;4.72;;;12.10;98.00;;;;;;4979675;28;20060;-79
2023/04/30 06:13:21;;;;;;;9.20;4.68;;;12.00;98.00;;;;;;4995406;28;20038;-79
2023/04/30 06:15:47;;;;;;;6.55;4.70;;;12.10;98.20;;;;;;5013041;28;20105;-79
2023/04/30 06:18:13;;;;;;;6.63;4.07;;;12.20;98.00;;;;;;4996515;28;20069;-79
2023/04/30 06:20:39;;;;;;;8.45;4.95;;;12.30;97.90;;;;;;4998915;28;20078;-79
2023/04/30 06:23:05;;;;;;;7.43;4.43;;;12.30;97.60;;;;;;4999047;28;20112;-79
2023/04/30 06:25:31;;;;;;;12.25;5.72;;;12.40;97.90;;;;;;4963228;28;20141;-79
2023/04/30 06:27:57;;;;;;;13.95;5.70;;;12.40;97.70;;;;;;4996092;28;20034;-79
2023/04/30 06:30:22;;;;;;;10.13;4.97;;;12.50;97.70;;;;;;4979489;28;20034;-79
2023/04/30 06:32:48;;;;;;;8.88;5.15;;;12.50;97.80;;;;;;4997045;28;20084;-79
2023/04/30 06:35:14;;;;;;;10.80;5.97;;;12.50;97.90;;;;;;4979422;28;20034;-79
2023/04/30 06:37:39;;;;;;;9.38;5.45;;;12.40;97.40;;;;;;4995552;28;20026;-79
2023/04/30 06:40:06;;;;;;;9.25;5.20;;;12.40;97.90;;;;;;4995464;28;20035;-79
2023/04/30 06:42:33;;;;;;;9.50;6.03;;;12.40;98.00;;;;;;4995641;28;20030;-79
2023/04/30 06:45:03;;;;;;;8.95;6.03;;;12.50;98.10;;;;;;4979184;28;20533;-79
2023/04/30 06:47:36;;;;;;;13.80;6.40;;;12.50;97.90;;;;;;4996362;28;20045;-79
2023/04/30 06:50:02;;;;;;;12.02;5.65;;;12.60;97.20;;;;;;4995526;28;20109;-79
2023/04/30 06:52:29;;;;;;;10.27;6.13;;;12.60;97.20;;;;;;4996411;28;20118;-79
2023/04/30 06:54:55;;;;;;;7.82;5.53;;;12.50;97.40;;;;;;4995401;28;20042;-78
2023/04/30 06:57:20;;;;;;;6.45;4.80;;;12.60;97.40;;;;;;4996089;28;20380;-79
2023/04/30 06:59:46;;;;;;;11.82;5.60;;;12.60;97.00;;;;;;4994861;28;20383;-79
2023/04/30 07:02:12;;;;;;;9.38;5.07;;;12.70;97.30;;;;;;4996533;28;20121;-78
2023/04/30 07:04:38;;;;;;;9.40;5.05;;;12.70;97.10;;;;;;4995913;28;20539;-79
2023/04/30 07:07:04;;;;;;;8.63;5.00;;;12.70;97.40;;;;;;4996548;28;20121;-79
2023/04/30 07:09:29;;;;;;;8.23;4.93;;;12.70;97.20;;;;;;4978594;28;20125;-78
2023/04/30 07:11:57;;;;;;;9.48;5.10;;;12.80;97.10;;;;;;4995078;28;20038;-79
2023/04/30 07:14:23;;;;;;;9.25;5.30;;;12.80;97.30;;;;;;4995021;28;20030;-79
2023/04/30 07:16:49;;;;;;;8.65;4.53;;;12.90;97.50;;;;;;4978525;28;20066;-79
2023/04/30 07:19:15;;;;;;;6.80;4.43;;;13.00;97.40;;;;;;4995449;28;20047;-79
2023/04/30 07:21:41;;;;;;;5.35;4.10;;;13.00;97.20;;;;;;4994489;28;20050;-79
2023/04/30 07:24:06;;;;;;;8.52;4.00;;;13.10;97.60;;;;;;4995945;28;20031;-78
2023/04/30 07:26:32;;;;;;;6.43;3.95;;;13.10;96.90;;;;;;4978462;28;20034;-78
2023/04/30 07:28:58;;;;;;;7.78;3.90;;;13.20;97.20;;;;;;4993707;28;20033;-79
2023/04/30 07:31:24;;;;;;;6.43;4.13;;;13.30;96.60;;;;;;4993500;28;20472;-78
2023/04/30 07:33:51;;;;;;;8.23;4.25;;;13.20;96.90;;;;;;4978271;28;20031;-78
2023/04/30 07:36:16;;;;;;;9.68;3.67;;;13.40;96.60;;;;;;4978176;28;20088;-79
2023/04/30 07:38:42;;;;;;;7.07;3.95;;;13.40;95.90;;;;;;4995540;28;20435;-78
2023/04/30 07:41:08;;;;;;;5.97;3.20;;;13.60;95.80;;;;;;4978170;28;20041;-78
2023/04/30 07:43:34;;;;;;;5.85;4.05;;;13.60;96.00;;;;;;4978136;28;20501;-78
2023/04/30 07:46:01;;;;;;;6.10;4.00;;;13.70;95.70;;;;;;4977932;28;20031;-78
2023/04/30 07:48:27;;;;;;;6.72;4.15;;;13.70;95.70;;;;;;4995572;28;20459;-79
2023/04/30 07:50:52;;;;;;;11.65;4.53;;;13.70;96.10;;;;;;4978053;28;20038;-78
2023/04/30 07:53:18;;;;;;;7.57;3.67;;;13.80;96.00;;;;;;4994979;28;20451;-79
2023/04/30 07:55:44;;;;;;;6.13;4.05;;;13.90;96.30;;;;;;4978172;28;20038;-79
2023/04/30 07:58:10;;;;;;;7.25;4.00;;;13.90;96.30;;;;;;4993752;28;20097;-79
2023/04/30 08:00:36;;;;;;;7.65;4.53;;;14.00;96.40;;;;;;4993925;28;20426;-79
2023/04/30 08:03:02;;;;;;;9.20;4.05;;;14.10;95.80;;;;;;4993796;28;20110;-78
2023/04/30 08:05:27;;;;;;;10.15;4.47;;;14.30;95.30;;;;;;4977572;28;20027;-78
2023/04/30 08:07:53;;;;;;;7.38;4.20;;;14.40;95.40;;;;;;4977515;28;20034;-78
2023/04/30 08:10:19;;;;;;;8.52;3.88;;;14.40;95.50;;;;;;4995387;28;20077;-78
2023/04/30 08:12:45;;;;;;;6.93;3.67;;;14.50;95.40;;;;;;4994145;28;20088;-78
2023/04/30 08:15:11;;;;;;;7.72;4.57;;;14.70;94.90;;;;;;4993420;28;20026;-78
2023/04/30 08:17:37;;;;;;;7.40;4.03;;;14.80;94.50;;;;;;4977394;28;20387;-79
2023/04/30 08:20:03;;;;;;;8.57;4.55;;;14.90;94.40;;;;;;4994907;28;20447;-79
2023/04/30 08:22:29;;;;;;;8.60;4.30;;;14.90;93.90;;;;;;4994269;28;20046;-78
2023/04/30 08:24:55;;;;;;;5.78;3.88;;;14.80;94.50;;;;;;4993450;28;20076;-79
2023/04/30 08:27:22;;;;;;;6.88;4.15;;;14.90;94.20;;;;;;4994218;28;20031;-79
2023/04/30 08:29:47;;;;;;;7.80;4.55;;;14.90;94.10;;;;;;4994879;28;20027;-79
2023/04/30 08:32:13;;;;;;;6.43;4.25;;;15.00;94.00;;;;;;4994800;28;20026;-78
2023/04/30 08:34:42;;;;;;;7.40;4.50;;;15.10;93.90;;;;;;4994493;28;20048;-79
2023/04/30 08:37:08;;;;;;;6.55;3.80;;;15.20;93.10;;;;;;4994768;28;20039;-79
2023/04/30 08:39:34;;;;;;;7.25;4.50;;;15.20;93.30;;;;;;4977097;28;20459;-79
2023/04/30 08:42:02;;;;;;;8.30;3.58;;;15.20;93.50;;;;;;4994164;28;20073;-79
2023/04/30 08:44:29;;;;;;;6.40;3.47;;;15.20;93.30;;;;;;4976676;28;20085;-79
2023/04/30 08:46:56;;;;;;;5.70;3.88;;;15.20;92.80;;;;;;4994474;28;20121;-78
2023/04/30 08:49:22;;;;;;;6.78;3.40;;;15.10;93.60;;;;;;4994411;28;20026;-79
2023/04/30 08:51:49;;;;;;;7.70;4.35;;;15.20;93.80;;;;;;4976536;28;20023;-79
2023/04/30 08:54:15;;;;;;;6.53;3.88;;;15.30;93.30;;;;;;4994456;28;20041;-79
2023/04/30 08:56:41;;;;;;;4.88;3.28;;;15.40;92.50;;;;;;4994014;28;20030;-79
2023/04/30 08:59:07;;;;;;;7.65;3.53;;;15.50;92.00;;;;;;4976342;28;20038;-79
2023/04/30 09:01:33;;;;;;;6.40;2.80;;;15.60;92.40;;;;;;4994170;28;20475;-79
2023/04/30 09:04:01;;;;;;;7.03;3.75;;;15.70;92.70;;;;;;4993168;28;20030;-79
2023/04/30 09:06:27;;;;;;;6.68;3.90;;;15.80;91.90;;;;;;4976906;28;20038;-79
2023/04/30 09:08:53;;;;;;;4.55;3.20;;;15.80;92.30;;;;;;4992924;28;20033;-78
2023/04/30 09:11:30;;;;;;;4.25;2.63;;;16.00;90.90;;;;;;4993991;28;20468;-79
2023/04/30 09:13:57;;;;;;;6.10;3.65;;;16.10;90.80;;;;;;4976667;28;20391;-80
2023/04/30 09:16:24;;;;;;;6.97;3.38;;;16.20;91.00;;;;;;4993002;28;20125;-79
2023/04/30 09:18:50;;;;;;;6.72;2.75;;;16.20;91.80;;;;;;4993325;28;20039;-79
2023/04/30 09:21:16;;;;;;;7.75;3.95;;;16.30;90.00;;;;;;4993442;28;20487;-79
2023/04/30 09:23:55;;;;;;;5.75;3.10;;;16.40;89.90;;;;;;4993907;28;20032;-79
2023/04/30 09:26:27;;;;;;;7.40;3.30;;;16.40;90.00;;;;;;4976236;28;20026;-79
2023/04/30 09:28:56;;;;;;;6.63;3.78;;;16.40;90.20;;;;;;4993483;28;20038;-78
2023/04/30 09:31:23;;;;;;;6.85;4.13;;;16.40;89.70;;;;;;4976483;28;20037;-78
2023/04/30 09:33:49;;;;;;;5.97;3.10;;;16.40;91.00;;;;;;4993593;28;20114;-79
2023/04/30 09:36:15;;;;;;;6.03;3.50;;;16.50;89.30;;;;;;4976285;28;20038;-79
2023/04/30 09:38:41;;;;;;;5.35;2.97;;;16.70;88.90;;;;;;4994329;28;20085;-78
2023/04/30 09:41:25;;;;;;;7.57;3.60;;;16.90;90.00;;;;;;4992533;28;20054;-79
2023/04/30 09:43:50;;;;;;;4.40;3.53;;;17.10;87.70;;;;;;4993908;28;20018;-79
2023/04/30 09:46:19;;;;;;;7.00;3.33;;;17.00;87.80;;;;;;4976294;28;20037;-79
2023/04/30 09:48:45;;;;;;;4.55;2.70;;;17.10;88.40;;;;;;4993527;28;20065;-79
2023/04/30 09:51:10;;;;;;;4.28;2.80;;;17.10;84.60;;;;;;4976459;28;20488;-78
2023/04/30 09:53:37;;;;;;;4.75;2.22;;;17.10;85.20;;;;;;4994344;28;20034;-79
2023/04/30 09:56:07;;;;;;;3.33;1.77;;;17.10;85.10;;;;;;4997514;28;20049;-78
2023/04/30 09:58:37;;;;;;;3.35;2.80;;;17.20;83.20;;;;;;4997094;28;20579;-78
2023/04/30 10:01:10;;;;;;;5.30;2.78;;;17.40;84.50;;;;;;4997840;28;20033;-79
2023/04/30 10:03:38;;;;;;;6.03;2.83;;;17.30;84.50;;;;;;4979815;28;20030;-78
2023/04/30 10:06:04;;;;;;;3.83;2.95;;;17.40;83.60;;;;;;4997098;28;20032;-79
2023/04/30 10:08:42;;;;;;;5.03;2.70;;;17.50;83.70;;;;;;4996540;28;20023;-79
2023/04/30 10:11:15;;;;;;;4.78;2.83;;;17.70;82.60;;;;;;4997557;28;20120;-79
2023/04/30 10:14:02;;;;;;;3.80;2.05;;;17.80;81.90;;;;;;4979887;28;20034;-78
2023/04/30 10:16:46;;;;;;;4.53;2.65;;;17.90;79.70;;;;;;4995879;28;20355;-78
2023/04/30 10:19:33;;;;;;;3.53;2.33;;;18.00;81.40;;;;;;4997116;28;20030;-78
2023/04/30 10:22:00;;;;;;;2.90;1.85;;;18.00;80.30;;;;;;4996538;28;20129;-78
2023/04/30 10:24:26;;;;;;;4.63;2.25;;;18.10;80.10;;;;;;4997152;28;20471;-78
2023/04/30 10:26:53;;;;;;;4.68;1.98;;;18.30;79.20;;;;;;4979866;28;20129;-78
2023/04/30 10:29:19;;;;;;;3.35;2.25;;;18.40;77.00;;;;;;4979296;28;20026;-78
2023/04/30 10:31:51;;;;;;;3.35;2.42;;;18.50;78.10;;;;;;4995588;28;20122;-79
2023/04/30 10:34:28;;;;;;;4.25;2.13;;;18.70;77.90;;;;;;4996950;28;20124;-78
2023/04/30 10:36:59;;;;;;;5.18;2.45;;;18.70;77.10;;;;;;4997005;28;20026;-78
2023/04/30 10:39:29;;;;;;;4.47;2.55;;;18.90;75.70;;;;;;4979508;28;20116;-79
2023/04/30 10:42:05;;;;;;;4.03;2.67;;;18.90;76.80;;;;;;4979203;28;20030;-79
2023/04/30 10:44:33;;;;;;;3.38;2.50;;;18.90;75.40;;;;;;4996790;28;20026;-78
2023/04/30 10:47:00;;;;;;;5.60;2.92;;;18.90;77.40;;;;;;4978993;28;20057;-77
2023/04/30 10:49:26;;;;;;;3.85;2.22;;;19.00;75.30;;;;;;4995224;28;20428;-78
2023/04/30 10:51:57;;;;;;;3.92;2.40;;;19.00;74.00;;;;;;4996572;28;20038;-79
2023/04/30 10:54:28;;;;;;;4.63;2.30;;;19.00;75.40;;;;;;4996464;28;20030;-78
2023/04/30 10:57:09;;;;;;;4.03;2.65;;;18.90;75.00;;;;;;4996421;28;20476;-78
2023/04/30 10:59:35;;;;;;;5.05;2.55;;;18.90;74.60;;;;;;4996312;28;20117;-79
2023/04/30 11:02:02;;;;;;;4.75;2.70;;;18.90;73.30;;;;;;4978977;28;20038;-77
2023/04/30 11:04:27;;;;;;;3.70;2.30;;;19.00;73.20;;;;;;4978609;28;20040;-78
2023/04/30 11:07:09;;;;;;;3.55;2.28;;;19.00;75.50;;;;;;4995902;28;20113;-75
2023/04/30 11:09:41;;;;;;;4.50;2.50;;;19.00;73.70;;;;;;4978837;28;20042;-76
2023/04/30 11:12:27;;;;;;;4.35;2.28;;;19.10;73.90;;;;;;4996093;28;20031;-76
2023/04/30 11:14:57;;;;;;;3.85;1.98;;;19.10;74.30;;;;;;4996186;28;20034;-76
2023/04/30 11:17:25;;;;;;;4.68;2.30;;;19.10;73.70;;;;;;4978336;28;20041;-76
2023/04/30 11:19:52;;;;;;;6.00;2.53;;;19.20;73.80;;;;;;4996084;28;20027;-76
2023/04/30 11:22:23;;;;;;;4.80;2.20;;;19.40;72.90;;;;;;4996039;28;20538;-76
2023/04/30 11:24:58;;;;;;;5.13;2.30;;;19.50;74.40;;;;;;4994441;28;20491;-76
2023/04/30 11:27:24;;;;;;;6.13;2.25;;;19.60;74.10;;;;;;4995790;28;20030;-76
2023/04/30 11:29:51;;;;;;;4.88;2.67;;;19.70;72.40;;;;;;4978131;28;20084;-75
2023/04/30 11:32:21;;;;;;;6.45;2.95;;;19.90;72.80;;;;;;4995939;28;20542;-76
2023/04/30 11:34:48;;;;;;;6.78;3.00;;;20.10;70.70;;;;;;4995238;28;20034;-75
2023/04/30 11:37:20;;;;;;;3.40;2.33;;;20.00;70.40;;;;;;4978660;28;20073;-75
2023/04/30 11:39:47;;;;;;;4.90;2.30;;;19.90;70.80;;;;;;4978218;28;20423;-76
2023/04/30 11:42:19;;;;;;;6.95;2.10;;;19.90;70.00;;;;;;4995313;28;20030;-75
2023/04/30 11:44:45;;;;;;;2.17;1.75;;;19.90;70.40;;;;;;4978056;28;20045;-76
2023/04/30 11:47:13;;;;;;;5.65;1.65;;;19.90;69.50;;;;;;4995751;28;20085;-76
2023/04/30 11:49:39;;;;;;;5.82;2.20;;;19.90;70.30;;;;;;4977760;28;20022;-76
2023/04/30 11:52:05;;;;;;;5.07;2.63;;;20.00;70.60;;;;;;4977820;28;20030;-77
2023/04/30 11:54:31;;;;;;;4.10;2.03;;;20.00;69.20;;;;;;4994045;28;20038;-76
2023/04/30 11:57:02;;;;;;;4.78;1.90;;;19.90;70.50;;;;;;4993781;28;20497;-76
2023/04/30 11:59:29;;;;;;;5.45;1.75;;;20.00;71.20;;;;;;4994896;28;20026;-76
2023/04/30 12:01:54;;;;;;;4.30;2.08;;;20.00;71.00;;;;;;4995073;28;20053;-76
2023/04/30 12:04:21;;;;;;;4.53;1.73;;;20.20;71.10;;;;;;4995098;28;20466;-76
2023/04/30 12:06:47;;;;;;;2.67;1.63;;;20.20;70.00;;;;;;4994002;28;20033;-76
2023/04/30 12:09:12;;;;;;;2.60;1.35;;;20.10;70.40;;;;;;4977551;28;20030;-76
2023/04/30 12:11:38;;;;;;;4.38;1.63;;;20.30;70.70;;;;;;4993671;28;20030;-76
2023/04/30 12:14:09;;;;;;;3.40;1.67;;;20.40;69.70;;;;;;4993854;28;20140;-76
2023/04/30 12:16:44;;;;;;;3.78;1.60;;;20.50;69.60;;;;;;4994308;28;20037;-76
2023/04/30 12:19:11;;;;;;;2.67;1.83;;;20.50;68.80;;;;;;4993972;28;20038;-76
2023/04/30 12:21:39;;;;;;;3.15;1.13;;;20.60;68.80;;;;;;4994609;28;20483;-76
2023/04/30 12:24:05;;;;;;;4.90;1.58;;;20.80;69.60;;;;;;4994526;28;20088;-76
2023/04/30 12:26:36;;;;;;;4.53;1.90;;;20.90;69.60;;;;;;4977328;28;20062;-76
2023/04/30 12:29:12;;;;;;;10.68;2.40;;;20.90;66.50;;;;;;4994167;28;20038;-76
2023/04/30 12:31:38;;;;;;;2.60;1.10;;;20.90;65.90;;;;;;4977295;28;20492;-76
2023/04/30 12:34:08;;;;;;;3.90;1.02;;;20.80;66.30;;;;;;4993236;28;20031;-77
2023/04/30 12:36:37;;;;;;;2.70;1.10;;;21.00;68.60;;;;;;4994667;28;20034;-76
2023/04/30 12:39:11;;;;;;;4.20;1.02;;;21.10;66.80;;;;;;4994191;28;20478;-77
2023/04/30 12:41:42;;;;;;;1.98;0.98;;;21.20;66.10;;;;;;4994684;28;20026;-76
2023/04/30 12:44:14;;;;;;;1.67;0.85;;;21.10;65.80;;;;;;4994472;28;20045;-76
2023/04/30 12:46:40;;;;;;;1.98;0.80;;;21.00;65.00;;;;;;4993856;28;20026;-76
2023/04/30 12:49:06;;;;;;;3.35;1.23;;;21.20;66.00;;;;;;4992859;28;20562;-77